Time;durP1;ratioP1;P1;durP2;ratioP2;P2;SDS_P1;SDS_P2;PMS_P1;PMS_P2;Temp;Humidity;BMP_temperature;BMP_pressure;BME280_temperature;BME280_humidity;BME280_pressure;Samples;Min_cycle;Max_cycle;Signal;HPM_P1;HPM_P2
2022/05/16 00:00:14;;;;;;;0.50;0.50;;;12.70;99.90;;;;;;4995473;28;20382;-71
2022/05/16 00:02:40;;;;;;;0.30;0.30;;;12.70;99.90;;;;;;4978790;28;20416;-70
2022/05/16 00:05:07;;;;;;;0.50;0.50;;;12.70;99.90;;;;;;4998583;28;20078;-71
2022/05/16 00:07:32;;;;;;;0.40;0.40;;;12.70;99.90;;;;;;5010891;28;20343;-70
2022/05/16 00:09:58;;;;;;;0.40;0.40;;;12.70;99.90;;;;;;5021703;28;20059;-70
2022/05/16 00:12:24;;;;;;;0.82;0.82;;;12.60;99.90;;;;;;5004292;28;20057;-70
2022/05/16 00:14:50;;;;;;;0.60;0.60;;;12.60;99.90;;;;;;5021943;28;20042;-71
2022/05/16 00:17:16;;;;;;;0.43;0.43;;;12.50;99.90;;;;;;5021478;28;20069;-70
2022/05/16 00:19:42;;;;;;;0.50;0.50;;;12.50;99.90;;;;;;5021666;28;20054;-70
2022/05/16 00:22:08;;;;;;;0.80;0.75;;;12.50;99.90;;;;;;5021200;28;20072;-70
2022/05/16 00:24:34;;;;;;;0.65;0.43;;;12.50;99.90;;;;;;5004156;28;20053;-71
2022/05/16 00:27:00;;;;;;;0.45;0.45;;;12.40;99.90;;;;;;5021438;28;20164;-71
2022/05/16 00:29:26;;;;;;;0.63;0.60;;;12.40;99.90;;;;;;5021713;28;20143;-70
2022/05/16 00:31:54;;;;;;;0.40;0.40;;;12.40;99.90;;;;;;5021380;28;20045;-70
2022/05/16 00:34:20;;;;;;;0.57;0.57;;;12.40;99.90;;;;;;5021411;28;20050;-69
2022/05/16 00:36:49;;;;;;;0.40;0.40;;;12.40;99.90;;;;;;4997056;28;20054;-69
2022/05/16 00:39:19;;;;;;;0.40;0.40;;;12.40;99.90;;;;;;5015129;28;20111;-71
2022/05/16 00:41:46;;;;;;;0.50;0.50;;;12.30;99.90;;;;;;5020979;28;20509;-70
2022/05/16 00:44:13;;;;;;;0.85;0.60;;;12.30;99.90;;;;;;5021108;28;20046;-69
2022/05/16 00:46:39;;;;;;;0.30;0.30;;;12.30;99.90;;;;;;5004296;28;20062;-71
2022/05/16 00:49:10;;;;;;;0.93;0.47;;;12.30;99.90;;;;;;5021280;28;20045;-71
2022/05/16 00:52:02;;;;;;;0.50;0.50;;;12.20;99.90;;;;;;5021055;28;20366;-70
2022/05/16 00:54:32;;;;;;;0.47;0.47;;;12.20;99.90;;;;;;5005639;28;20121;-70
2022/05/16 00:57:08;;;;;;;0.73;0.73;;;12.20;99.90;;;;;;5002024;28;20046;-70
2022/05/16 00:59:46;;;;;;;0.60;0.60;;;12.20;99.90;;;;;;4984499;28;20046;-71
2022/05/16 01:04:56;;;;;;;0.70;0.70;;;12.30;99.90;;;;;;5001480;28;20054;-70
2022/05/16 01:07:43;;;;;;;0.40;0.40;;;12.30;99.90;;;;;;5012400;28;20331;-70
2022/05/16 01:10:12;;;;;;;0.60;0.60;;;12.30;99.90;;;;;;5004069;28;20053;-69
2022/05/16 01:12:42;;;;;;;0.40;0.40;;;12.30;99.90;;;;;;5021070;28;20100;-70
2022/05/16 01:15:12;;;;;;;0.50;0.50;;;12.30;99.90;;;;;;5020958;28;20104;-71
2022/05/16 01:17:38;;;;;;;0.40;0.40;;;12.30;99.90;;;;;;5017382;28;20115;-70
2022/05/16 01:20:06;;;;;;;0.60;0.60;;;12.30;99.90;;;;;;5018155;28;20453;-69
2022/05/16 01:22:36;;;;;;;0.75;0.75;;;12.20;99.90;;;;;;5002779;28;20038;-70
2022/05/16 01:25:28;;;;;;;0.52;0.52;;;12.20;99.90;;;;;;4998668;28;20402;-71
2022/05/16 01:28:01;;;;;;;0.40;0.40;;;12.30;99.90;;;;;;4994596;28;20430;-71
2022/05/16 01:30:33;;;;;;;0.43;0.43;;;12.20;99.90;;;;;;4998471;28;20363;-70
2022/05/16 01:32:59;;;;;;;0.63;0.63;;;12.20;99.90;;;;;;4981058;28;20489;-71
2022/05/16 01:35:27;;;;;;;0.60;0.60;;;12.20;99.90;;;;;;4998299;28;20046;-69
2022/05/16 01:40:38;;;;;;;1.58;1.48;;;12.20;99.90;;;;;;4998637;28;20427;-71
2022/05/16 01:43:04;;;;;;;0.40;0.40;;;12.20;99.90;;;;;;4997807;28;20038;-70
2022/05/16 01:45:30;;;;;;;0.45;0.45;;;12.20;99.90;;;;;;4998218;28;20375;-70
2022/05/16 01:47:56;;;;;;;0.60;0.60;;;12.10;99.90;;;;;;4997996;28;20042;-69
2022/05/16 01:50:22;;;;;;;0.40;0.40;;;12.10;99.90;;;;;;5001863;28;20077;-69
2022/05/16 01:52:47;;;;;;;0.40;0.40;;;12.10;99.90;;;;;;5009705;28;20046;-71
2022/05/16 01:55:13;;;;;;;0.50;0.50;;;12.10;99.90;;;;;;4997551;28;20069;-70
2022/05/16 01:57:39;;;;;;;0.63;0.63;;;12.10;99.90;;;;;;4980744;28;20057;-69
2022/05/16 02:00:09;;;;;;;0.47;0.47;;;12.00;99.90;;;;;;4997586;28;20049;-70
2022/05/16 02:02:35;;;;;;;0.45;0.45;;;12.00;99.90;;;;;;4997261;28;20047;-71
2022/05/16 02:05:01;;;;;;;1.20;1.20;;;12.00;99.90;;;;;;4997402;28;20538;-70
2022/05/16 02:07:27;;;;;;;0.40;0.40;;;12.00;99.90;;;;;;4998065;28;20117;-70
2022/05/16 02:09:53;;;;;;;0.50;0.50;;;11.90;99.90;;;;;;4997189;28;20387;-71
2022/05/16 02:12:19;;;;;;;0.40;0.40;;;11.90;99.90;;;;;;4979820;28;20058;-70
2022/05/16 02:14:45;;;;;;;0.50;0.50;;;11.90;99.90;;;;;;4997559;28;20038;-70
2022/05/16 02:17:10;;;;;;;0.45;0.45;;;11.90;99.90;;;;;;4997584;28;20442;-71
2022/05/16 02:19:36;;;;;;;0.73;0.73;;;11.90;99.90;;;;;;4997057;28;20104;-70
2022/05/16 02:24:46;;;;;;;0.50;0.50;;;11.90;99.90;;;;;;4997216;28;20359;-71
2022/05/16 02:27:15;;;;;;;0.40;0.40;;;11.80;99.90;;;;;;4997223;28;20046;-71
2022/05/16 02:29:41;;;;;;;1.63;1.17;;;11.90;99.90;;;;;;4996085;28;20072;-69
2022/05/16 02:32:08;;;;;;;0.50;0.50;;;11.90;99.90;;;;;;4996862;28;20125;-71
2022/05/16 02:34:33;;;;;;;1.08;1.05;;;11.90;99.90;;;;;;4996903;28;20466;-69
2022/05/16 02:36:59;;;;;;;0.40;0.40;;;11.80;99.90;;;;;;4997137;28;20038;-71
2022/05/16 02:39:26;;;;;;;0.40;0.40;;;11.80;99.90;;;;;;5016211;28;20435;-69
2022/05/16 02:41:51;;;;;;;0.40;0.40;;;11.90;99.90;;;;;;5016419;28;20038;-70
2022/05/16 02:44:17;;;;;;;0.68;0.68;;;11.80;99.90;;;;;;5016413;28;20367;-71
2022/05/16 02:46:44;;;;;;;0.40;0.40;;;11.80;99.90;;;;;;5016474;28;20050;-70
2022/05/16 02:49:09;;;;;;;2.13;0.95;;;11.70;99.90;;;;;;5016562;28;20060;-71
2022/05/16 02:51:35;;;;;;;0.60;0.60;;;11.70;99.90;;;;;;4999166;28;20386;-70
2022/05/16 02:54:00;;;;;;;0.70;0.70;;;11.70;99.90;;;;;;4997691;28;20511;-71
2022/05/16 02:56:26;;;;;;;1.02;0.95;;;11.60;99.90;;;;;;4996748;28;20046;-71
2022/05/16 02:58:52;;;;;;;1.00;0.88;;;11.60;99.90;;;;;;4979527;28;20120;-71
2022/05/16 03:01:18;;;;;;;0.47;0.47;;;11.60;99.90;;;;;;4996357;28;20370;-71
2022/05/16 03:03:43;;;;;;;0.77;0.77;;;11.60;99.90;;;;;;4996841;28;20050;-70
2022/05/16 03:06:10;;;;;;;0.40;0.40;;;11.60;99.90;;;;;;4979592;28;20438;-70
2022/05/16 03:08:37;;;;;;;0.50;0.50;;;11.60;99.90;;;;;;5012698;28;20081;-71
2022/05/16 03:11:03;;;;;;;0.40;0.40;;;11.50;99.90;;;;;;5015904;28;20060;-70
2022/05/16 03:13:29;;;;;;;0.40;0.40;;;11.60;99.90;;;;;;5015862;28;20045;-70
2022/05/16 03:15:55;;;;;;;0.82;0.82;;;11.60;99.90;;;;;;5015917;28;20052;-69
2022/05/16 03:18:23;;;;;;;0.68;0.63;;;11.60;99.90;;;;;;5016207;28;20377;-70
2022/05/16 03:20:49;;;;;;;0.40;0.40;;;11.60;99.90;;;;;;5015690;28;20187;-70
2022/05/16 03:23:15;;;;;;;0.57;0.57;;;11.60;99.90;;;;;;4999303;28;20042;-70
2022/05/16 03:25:41;;;;;;;0.45;0.45;;;11.50;99.90;;;;;;4996042;28;20421;-70
2022/05/16 03:28:06;;;;;;;0.40;0.40;;;11.50;99.90;;;;;;4996371;28;20121;-70
2022/05/16 03:30:32;;;;;;;0.38;0.38;;;11.60;99.90;;;;;;4995835;28;20414;-70
2022/05/16 03:32:57;;;;;;;0.40;0.40;;;11.50;99.90;;;;;;4993163;28;20061;-71
2022/05/16 03:35:23;;;;;;;0.80;0.80;;;11.50;99.90;;;;;;4978481;28;20446;-70
2022/05/16 03:37:49;;;;;;;0.50;0.50;;;11.50;99.90;;;;;;5009538;28;20514;-70
2022/05/16 03:42:59;;;;;;;0.40;0.40;;;11.50;99.90;;;;;;5015321;28;20057;-70
2022/05/16 03:45:25;;;;;;;0.40;0.40;;;11.50;99.90;;;;;;5015733;28;20042;-70
2022/05/16 03:47:51;;;;;;;2.92;0.70;;;11.40;99.90;;;;;;5015652;28;20125;-70
2022/05/16 03:50:17;;;;;;;0.60;0.60;;;11.40;99.90;;;;;;5015298;28;20111;-70
2022/05/16 03:52:42;;;;;;;0.50;0.50;;;11.40;99.90;;;;;;5012215;28;20477;-71
2022/05/16 03:55:12;;;;;;;0.50;0.50;;;11.40;99.90;;;;;;4995791;28;20042;-71
2022/05/16 03:57:39;;;;;;;0.40;0.40;;;11.40;99.90;;;;;;4995576;28;20125;-71
2022/05/16 04:00:09;;;;;;;0.60;0.60;;;11.40;99.90;;;;;;4995477;28;20046;-70
2022/05/16 04:02:36;;;;;;;0.50;0.50;;;11.40;99.90;;;;;;4995504;28;20043;-71
2022/05/16 04:05:02;;;;;;;0.63;0.60;;;11.40;99.90;;;;;;4995914;28;20121;-70
2022/05/16 04:07:28;;;;;;;0.65;0.50;;;11.50;99.90;;;;;;5006628;28;20343;-70
2022/05/16 04:09:53;;;;;;;0.40;0.40;;;11.50;99.90;;;;;;5015250;28;20046;-71
2022/05/16 04:12:19;;;;;;;0.43;0.43;;;11.60;99.90;;;;;;4994802;28;20038;-70
2022/05/16 04:14:44;;;;;;;0.50;0.50;;;11.60;99.90;;;;;;5015111;28;20042;-71
2022/05/16 04:17:10;;;;;;;1.17;0.98;;;11.70;99.90;;;;;;5015081;28;20517;-71
2022/05/16 04:19:36;;;;;;;0.50;0.50;;;11.80;99.90;;;;;;5015237;28;20528;-70
2022/05/16 04:22:02;;;;;;;0.50;0.50;;;11.70;99.90;;;;;;5014838;28;20491;-71
2022/05/16 04:24:27;;;;;;;0.40;0.40;;;11.80;99.90;;;;;;5014976;28;20049;-69
2022/05/16 04:26:53;;;;;;;0.50;0.50;;;11.80;99.90;;;;;;5015161;28;20612;-69
2022/05/16 04:29:19;;;;;;;0.50;0.50;;;11.90;99.90;;;;;;5014809;28;20052;-70
2022/05/16 04:31:44;;;;;;;0.60;0.60;;;11.90;99.90;;;;;;5014888;28;20068;-70
2022/05/16 04:34:10;;;;;;;0.50;0.50;;;12.10;99.90;;;;;;4997830;28;20133;-70
2022/05/16 04:36:37;;;;;;;0.32;0.32;;;12.20;99.90;;;;;;5006321;28;20043;-69
2022/05/16 04:39:03;;;;;;;0.50;0.50;;;12.10;99.90;;;;;;4995382;28;20050;-71
2022/05/16 04:44:13;;;;;;;0.45;0.45;;;12.30;99.90;;;;;;4994984;28;20051;-69
2022/05/16 04:46:39;;;;;;;1.58;0.73;;;12.30;99.90;;;;;;4995169;28;20356;-71
2022/05/16 04:49:05;;;;;;;0.95;0.73;;;12.30;99.90;;;;;;4995375;28;20108;-71
2022/05/16 04:51:30;;;;;;;0.40;0.40;;;12.40;99.90;;;;;;5005277;28;20493;-71
2022/05/16 04:53:56;;;;;;;3.72;0.85;;;12.40;99.90;;;;;;5018070;28;20418;-70
2022/05/16 04:56:22;;;;;;;0.95;0.93;;;12.50;99.90;;;;;;5001393;28;20061;-70
2022/05/16 04:58:47;;;;;;;0.45;0.45;;;12.60;99.90;;;;;;5018112;28;20045;-70
2022/05/16 05:01:13;;;;;;;0.38;0.38;;;12.60;99.90;;;;;;5018381;28;20107;-70
2022/05/16 05:03:40;;;;;;;0.40;0.40;;;12.60;99.90;;;;;;5018681;28;20057;-72
2022/05/16 05:06:06;;;;;;;0.50;0.50;;;12.70;99.90;;;;;;5013886;28;20073;-70
2022/05/16 05:08:32;;;;;;;0.43;0.43;;;12.80;99.90;;;;;;4998308;28;20050;-71
2022/05/16 05:16:26;;;;;;;0.30;0.30;;;13.00;99.90;;;;;;4998536;28;20157;-71
2022/05/16 05:18:52;;;;;;;4.22;0.60;;;13.20;99.90;;;;;;4997865;28;20101;-69
2022/05/16 05:21:17;;;;;;;0.52;0.52;;;13.30;99.90;;;;;;4998249;28;20058;-70
2022/05/16 05:23:43;;;;;;;0.30;0.30;;;13.50;99.90;;;;;;5012009;28;20053;-71
2022/05/16 05:26:10;;;;;;;0.63;0.57;;;13.60;99.90;;;;;;5018098;28;20054;-70
2022/05/16 05:28:37;;;;;;;0.52;0.52;;;13.90;99.90;;;;;;5017992;28;20053;-71
2022/05/16 05:31:03;;;;;;;0.47;0.47;;;14.10;99.90;;;;;;5017788;28;20362;-71
2022/05/16 05:33:29;;;;;;;0.40;0.40;;;14.60;99.90;;;;;;5017702;28;20355;-71
2022/05/16 05:35:55;;;;;;;0.50;0.50;;;15.40;99.90;;;;;;5014995;28;20070;-71
2022/05/16 05:38:21;;;;;;;0.52;0.43;;;16.20;99.90;;;;;;4997990;28;20051;-71
2022/05/16 05:40:49;;;;;;;0.50;0.50;;;16.50;99.90;;;;;;4997954;28;20092;-70
2022/05/16 05:43:14;;;;;;;0.40;0.40;;;16.40;99.90;;;;;;4998066;28;20057;-70
2022/05/16 05:45:40;;;;;;;0.40;0.40;;;17.30;99.90;;;;;;4998077;28;20494;-72
2022/05/16 05:48:06;;;;;;;0.30;0.30;;;18.30;99.90;;;;;;4997811;28;20089;-71
2022/05/16 05:50:32;;;;;;;0.65;0.60;;;18.40;99.90;;;;;;4998060;28;20452;-72
2022/05/16 05:52:58;;;;;;;0.40;0.40;;;17.90;99.90;;;;;;4997751;28;20133;-72
2022/05/16 05:55:24;;;;;;;0.47;0.47;;;17.80;99.90;;;;;;4997667;28;20121;-70
2022/05/16 05:57:50;;;;;;;0.35;0.35;;;17.40;99.90;;;;;;4980784;28;20054;-70
2022/05/16 06:00:16;;;;;;;0.30;0.30;;;18.00;99.90;;;;;;4997987;28;20054;-72
2022/05/16 06:02:42;;;;;;;1.42;1.33;;;18.80;99.90;;;;;;4980275;28;20354;-70
2022/05/16 06:05:11;;;;;;;0.40;0.40;;;19.70;99.90;;;;;;4980328;28;20050;-70
2022/05/16 06:07:37;;;;;;;0.32;0.32;;;20.10;99.10;;;;;;5012665;28;20484;-70
2022/05/16 06:10:04;;;;;;;0.60;0.60;;;19.70;99.50;;;;;;5017359;28;20132;-72
2022/05/16 06:12:30;;;;;;;0.40;0.40;;;19.90;99.00;;;;;;5017483;28;20050;-71
2022/05/16 06:14:55;;;;;;;1.50;0.90;;;19.70;98.30;;;;;;5017021;28;20099;-70
2022/05/16 06:17:21;;;;;;;0.40;0.40;;;19.10;98.90;;;;;;5016052;28;20053;-71
2022/05/16 06:19:47;;;;;;;0.22;0.22;;;18.50;99.90;;;;;;5017110;28;20072;-70
2022/05/16 06:22:13;;;;;;;0.32;0.32;;;17.90;99.90;;;;;;5016201;28;20438;-71
2022/05/16 06:27:22;;;;;;;0.20;0.20;;;17.60;99.90;;;;;;5016915;28;20133;-71
2022/05/16 06:29:48;;;;;;;0.55;0.40;;;18.20;99.90;;;;;;5016873;28;20089;-70
2022/05/16 06:32:13;;;;;;;1.02;0.93;;;18.90;99.90;;;;;;5016451;28;20053;-71
2022/05/16 06:34:39;;;;;;;0.20;0.20;;;19.50;99.90;;;;;;5016259;28;20041;-72
2022/05/16 06:37:05;;;;;;;0.82;0.52;;;20.10;99.40;;;;;;5000848;28;20038;-71
2022/05/16 06:39:30;;;;;;;0.55;0.47;;;20.90;99.50;;;;;;4996892;28;20121;-72
2022/05/16 06:41:56;;;;;;;0.30;0.30;;;21.40;95.50;;;;;;4997043;28;20057;-72
2022/05/16 06:44:22;;;;;;;0.30;0.30;;;22.10;95.50;;;;;;4996558;28;20125;-71
2022/05/16 06:46:48;;;;;;;0.50;0.50;;;22.40;92.80;;;;;;4996375;28;20086;-72
2022/05/16 06:49:13;;;;;;;0.20;0.20;;;23.10;90.90;;;;;;4996487;28;20374;-71
2022/05/16 06:51:39;;;;;;;0.40;0.40;;;23.20;90.50;;;;;;4997624;28;20042;-71
2022/05/16 06:54:06;;;;;;;1.17;0.30;;;24.00;90.20;;;;;;5016479;28;20038;-72
2022/05/16 06:56:31;;;;;;;0.20;0.20;;;24.00;85.50;;;;;;5016237;28;20077;-70
2022/05/16 06:58:57;;;;;;;0.20;0.20;;;23.80;85.40;;;;;;5016422;28;20042;-72
2022/05/16 07:01:23;;;;;;;0.73;0.73;;;23.90;85.20;;;;;;5016418;28;20084;-71
2022/05/16 07:03:48;;;;;;;5.47;1.20;;;23.70;85.30;;;;;;5015941;28;20054;-72
2022/05/16 07:06:14;;;;;;;1.35;0.52;;;24.10;84.70;;;;;;5008168;28;20046;-70
2022/05/16 07:08:41;;;;;;;0.10;0.10;;;24.50;83.10;;;;;;4996236;28;20074;-71
2022/05/16 07:11:07;;;;;;;0.43;0.43;;;24.70;81.20;;;;;;4979535;28;20046;-71
2022/05/16 07:13:34;;;;;;;0.75;0.32;;;24.90;79.20;;;;;;4979336;28;20050;-72
2022/05/16 07:16:00;;;;;;;1.10;0.85;;;24.50;80.20;;;;;;4978869;28;20057;-73
2022/05/16 07:18:27;;;;;;;1.20;1.10;;;24.40;78.20;;;;;;4996125;28;20047;-72
2022/05/16 07:20:53;;;;;;;0.55;0.55;;;24.40;79.80;;;;;;5008213;28;20042;-71
2022/05/16 07:23:19;;;;;;;0.10;0.10;;;25.00;78.90;;;;;;5015754;28;20049;-73
2022/05/16 07:28:29;;;;;;;0.88;0.88;;;25.60;77.40;;;;;;5015121;28;20072;-71
2022/05/16 07:30:55;;;;;;;0.68;0.50;;;25.30;75.00;;;;;;5015575;28;20041;-71
2022/05/16 07:33:21;;;;;;;2.28;0.50;;;25.20;75.30;;;;;;5015295;28;20172;-72
2022/05/16 07:35:52;;;;;;;0.20;0.20;;;25.30;76.20;;;;;;5015593;28;20143;-71
2022/05/16 07:38:23;;;;;;;0.10;0.10;;;24.90;74.30;;;;;;5015665;28;20100;-71
2022/05/16 07:40:49;;;;;;;0.32;0.30;;;24.80;75.60;;;;;;5015563;28;20050;-72
2022/05/16 07:43:15;;;;;;;1.00;0.20;;;25.10;75.20;;;;;;5007276;28;20450;-71
2022/05/16 07:45:41;;;;;;;0.50;0.50;;;25.00;73.80;;;;;;4995667;28;20143;-71
2022/05/16 07:48:07;;;;;;;0.43;0.32;;;24.70;75.40;;;;;;4978795;28;20089;-71
2022/05/16 07:50:36;;;;;;;5.93;0.55;;;24.40;76.00;;;;;;4995884;28;20531;-72
2022/05/16 07:53:11;;;;;;;0.85;0.20;;;24.70;75.60;;;;;;4961479;28;20054;-72
2022/05/16 07:55:39;;;;;;;0.35;0.30;;;24.90;76.90;;;;;;4995704;28;20521;-72
2022/05/16 07:58:04;;;;;;;0.22;0.22;;;25.10;76.60;;;;;;4995549;28;20043;-72
2022/05/16 08:00:30;;;;;;;3.42;0.65;;;25.40;75.60;;;;;;4992726;28;20124;-72
2022/05/16 08:02:56;;;;;;;0.20;0.20;;;25.00;76.30;;;;;;4978802;28;20081;-71
2022/05/16 08:05:21;;;;;;;0.45;0.20;;;25.30;74.70;;;;;;4995412;28;20386;-71
2022/05/16 08:10:33;;;;;;;1.15;0.70;;;25.40;76.50;;;;;;5015264;28;20369;-71
2022/05/16 08:13:02;;;;;;;3.40;0.45;;;25.60;73.80;;;;;;5014868;28;20132;-73
2022/05/16 08:15:29;;;;;;;0.60;0.47;;;26.30;74.20;;;;;;5015394;28;20111;-72
2022/05/16 08:17:55;;;;;;;0.32;0.30;;;26.30;72.60;;;;;;5015169;28;20057;-72
2022/05/16 08:20:21;;;;;;;0.13;0.13;;;26.30;71.30;;;;;;5014971;28;20050;-72
2022/05/16 08:22:47;;;;;;;0.90;0.77;;;26.20;72.70;;;;;;5006627;28;20077;-72
2022/05/16 08:25:14;;;;;;;0.85;0.60;;;26.30;72.80;;;;;;4995406;28;20090;-71
2022/05/16 08:27:40;;;;;;;0.60;0.43;;;26.40;72.70;;;;;;4999343;28;20042;-72
2022/05/16 08:30:07;;;;;;;0.75;0.73;;;26.40;73.40;;;;;;4982364;28;20069;-72
2022/05/16 08:32:32;;;;;;;0.15;0.15;;;26.00;70.70;;;;;;4999383;28;20046;-71
2022/05/16 08:35:00;;;;;;;0.30;0.25;;;25.70;72.70;;;;;;4998847;28;20050;-72
2022/05/16 08:40:12;;;;;;;0.52;0.43;;;26.60;72.20;;;;;;5018806;28;20054;-72
2022/05/16 08:43:11;;;;;;;1.65;0.85;;;26.90;71.10;;;;;;5001741;28;20042;-71
2022/05/16 08:45:40;;;;;;;0.10;0.10;;;27.50;70.90;;;;;;5003788;28;20066;-72
2022/05/16 08:48:22;;;;;;;0.55;0.30;;;27.60;70.20;;;;;;5018532;28;20057;-72
2022/05/16 08:50:56;;;;;;;0.10;0.10;;;27.10;69.10;;;;;;5000845;28;20045;-72
2022/05/16 08:53:48;;;;;;;0.20;0.20;;;27.00;69.40;;;;;;5018710;28;20537;-72
2022/05/16 08:56:23;;;;;;;0.10;0.10;;;26.60;70.70;;;;;;5001143;28;20053;-72
2022/05/16 08:59:05;;;;;;;1.33;0.85;;;27.20;71.20;;;;;;5018688;28;20414;-71
2022/05/16 09:01:37;;;;;;;0.50;0.50;;;27.80;69.40;;;;;;5018247;28;20045;-72
2022/05/16 09:04:17;;;;;;;0.93;0.50;;;28.00;69.60;;;;;;5017869;28;20052;-73
2022/05/16 09:07:01;;;;;;;0.98;0.95;;;28.20;70.10;;;;;;5016115;28;20434;-71
2022/05/16 09:09:47;;;;;;;0.20;0.15;;;27.70;68.60;;;;;;5000443;28;20125;-73
2022/05/16 09:12:14;;;;;;;0.10;0.10;;;27.30;69.70;;;;;;5018284;28;20125;-71
2022/05/16 09:14:58;;;;;;;0.90;0.35;;;27.20;68.60;;;;;;5018177;28;20441;-71
2022/05/16 09:18:01;;;;;;;0.10;0.10;;;26.70;67.90;;;;;;5017960;28;20478;-72
2022/05/16 09:20:35;;;;;;;0.22;0.22;;;26.50;70.60;;;;;;5018025;28;20104;-71
2022/05/16 09:23:18;;;;;;;0.30;0.30;;;26.80;70.20;;;;;;5015984;28;20053;-70
2022/05/16 09:25:59;;;;;;;0.10;0.10;;;26.90;71.50;;;;;;4998706;28;20108;-71
2022/05/16 09:28:34;;;;;;;0.08;0.08;;;26.90;69.60;;;;;;4998378;28;20035;-72
2022/05/16 09:31:12;;;;;;;0.20;0.20;;;27.00;71.40;;;;;;4998504;28;20081;-72
2022/05/16 09:33:44;;;;;;;1.85;1.10;;;27.10;70.20;;;;;;4997682;28;20390;-71
2022/05/16 09:36:12;;;;;;;0.38;0.32;;;26.90;68.60;;;;;;5005045;28;20528;-71
2022/05/16 09:38:43;;;;;;;0.30;0.30;;;27.00;69.20;;;;;;5016726;28;20096;-72
2022/05/16 09:41:44;;;;;;;2.10;0.90;;;27.30;70.80;;;;;;5018031;28;20362;-72
2022/05/16 09:44:22;;;;;;;6.60;0.80;;;27.40;69.10;;;;;;5017936;28;20041;-72
2022/05/16 09:46:49;;;;;;;0.10;0.10;;;27.20;68.10;;;;;;4984485;28;20374;-72
2022/05/16 09:49:23;;;;;;;0.20;0.20;;;27.30;68.60;;;;;;5017783;28;20050;-73
2022/05/16 09:51:55;;;;;;;2.13;0.82;;;27.00;67.40;;;;;;5014638;28;20185;-72
2022/05/16 09:54:32;;;;;;;0.45;0.45;;;26.70;67.90;;;;;;4980646;28;20057;-73
2022/05/16 09:56:58;;;;;;;0.82;0.43;;;26.40;68.60;;;;;;4997697;28;20398;-72
2022/05/16 09:59:59;;;;;;;0.90;0.30;;;26.30;69.10;;;;;;4997928;28;20046;-71
2022/05/16 10:02:30;;;;;;;3.05;0.43;;;26.00;69.40;;;;;;4984336;28;20073;-72
2022/05/16 10:05:01;;;;;;;0.17;0.17;;;26.20;72.10;;;;;;4998379;28;20077;-72
2022/05/16 10:07:45;;;;;;;0.45;0.40;;;26.30;71.40;;;;;;4997940;28;20046;-71
2022/05/16 10:10:19;;;;;;;0.80;0.57;;;26.40;70.00;;;;;;4997616;28;20108;-71
2022/05/16 10:12:53;;;;;;;3.83;1.17;;;26.70;68.70;;;;;;4997595;28;20046;-72
2022/05/16 10:15:20;;;;;;;0.52;0.52;;;27.00;68.40;;;;;;4997248;28;20054;-72
2022/05/16 10:17:49;;;;;;;0.38;0.30;;;26.80;67.40;;;;;;4997253;28;20066;-72
2022/05/16 10:20:26;;;;;;;0.43;0.30;;;26.80;68.50;;;;;;4998499;28;20047;-72
2022/05/16 10:22:55;;;;;;;0.40;0.35;;;27.00;69.30;;;;;;5016510;28;20041;-71
2022/05/16 10:25:35;;;;;;;0.20;0.20;;;27.00;68.30;;;;;;5016730;28;20046;-71
2022/05/16 10:28:04;;;;;;;0.32;0.20;;;27.00;69.70;;;;;;5016642;28;20048;-72
2022/05/16 10:33:24;;;;;;;0.30;0.30;;;26.90;68.10;;;;;;5016708;28;20061;-72
2022/05/16 10:33:27;;;;;;;0.52;0.30;;;27.10;68.10;;;;;;5016758;28;20053;-72
2022/05/16 10:35:59;;;;;;;0.55;0.30;;;27.00;68.10;;;;;;5012442;28;20050;-70
2022/05/16 10:38:43;;;;;;;0.57;0.57;;;27.10;67.40;;;;;;4997331;28;20046;-71
2022/05/16 10:41:18;;;;;;;5.68;0.47;;;27.20;68.50;;;;;;4996819;28;20046;-71
2022/05/16 10:44:01;;;;;;;1.58;0.75;;;27.20;67.40;;;;;;4997342;28;20054;-72
2022/05/16 10:46:34;;;;;;;1.25;0.30;;;27.20;66.30;;;;;;4996709;28;20043;-72
2022/05/16 10:49:09;;;;;;;;;;;27.20;67.70;;;;;;4996686;28;20050;-72
2022/05/16 10:51:41;;;;;;;0.77;0.57;;;27.30;68.00;;;;;;4996691;28;19922;-71
2022/05/16 10:54:21;;;;;;;0.35;0.28;;;27.50;67.70;;;;;;4996869;28;20085;-71
2022/05/16 10:56:53;;;;;;;1.02;1.02;;;27.40;67.60;;;;;;4996417;28;20085;-72
2022/05/16 11:00:06;;;;;;;0.20;0.20;;;27.30;67.40;;;;;;4996408;28;20054;-71
2022/05/16 11:03:01;;;;;;;0.20;0.20;;;27.30;67.00;;;;;;4961457;28;20065;-72
2022/05/16 11:05:51;;;;;;;0.13;0.13;;;27.30;66.40;;;;;;5000254;28;20052;-70
2022/05/16 11:08:32;;;;;;;1.38;0.60;;;27.40;68.60;;;;;;5015624;28;20122;-71
2022/05/16 11:11:21;;;;;;;0.17;0.17;;;27.80;68.00;;;;;;5016105;28;20065;-72
2022/05/16 11:14:06;;;;;;;0.20;0.20;;;28.00;66.40;;;;;;5013526;28;20057;-71
2022/05/16 11:16:34;;;;;;;0.60;0.50;;;28.00;66.20;;;;;;4996067;28;20142;-72
2022/05/16 11:19:27;;;;;;;0.32;0.32;;;27.90;66.20;;;;;;5007894;28;20058;-72
2022/05/16 11:22:10;;;;;;;0.10;0.10;;;27.70;66.10;;;;;;5015596;28;20049;-71
2022/05/16 11:24:59;;;;;;;0.73;0.43;;;27.30;66.10;;;;;;5016036;28;20354;-71
2022/05/16 11:28:10;;;;;;;0.80;0.40;;;27.30;67.80;;;;;;4998596;28;20378;-72
2022/05/16 11:30:56;;;;;;;0.75;0.30;;;27.10;67.70;;;;;;4995415;28;20053;-72
2022/05/16 11:33:40;;;;;;;0.93;0.50;;;26.90;68.60;;;;;;5013819;28;20104;-72
2022/05/16 11:36:20;;;;;;;0.13;0.13;;;26.60;69.00;;;;;;5015535;28;20480;-71
2022/05/16 11:38:55;;;;;;;0.13;0.13;;;26.50;71.00;;;;;;5015409;28;20100;-72
2022/05/16 11:41:35;;;;;;;0.40;0.32;;;26.10;69.30;;;;;;5015414;28;20129;-72
2022/05/16 11:44:27;;;;;;;0.57;0.45;;;25.80;70.50;;;;;;5015732;28;20136;-72
2022/05/16 11:46:57;;;;;;;0.20;0.20;;;25.70;72.00;;;;;;5015560;28;20050;-72
2022/05/16 11:49:52;;;;;;;4.28;0.43;;;25.60;74.60;;;;;;4997324;28;20344;-72
2022/05/16 11:52:28;;;;;;;1.27;0.68;;;25.50;80.40;;;;;;4998201;28;20123;-71
2022/05/16 12:00:56;;;;;;;0.73;0.68;;;25.40;79.80;;;;;;5013467;28;20050;-72
2022/05/16 12:03:31;;;;;;;0.35;0.32;;;25.30;80.50;;;;;;5011335;28;20053;-71
2022/05/16 12:06:15;;;;;;;1.08;0.52;;;25.30;90.40;;;;;;4978320;28;20090;-70
2022/05/16 12:08:44;;;;;;;0.52;0.38;;;25.20;95.20;;;;;;4995368;28;20049;-71
2022/05/16 12:11:16;;;;;;;0.30;0.30;;;25.10;93.70;;;;;;4995853;28;20052;-72
2022/05/16 12:14:02;;;;;;;0.10;0.10;;;25.00;96.50;;;;;;4995566;28;20078;-72
2022/05/16 12:16:34;;;;;;;0.50;0.32;;;25.00;98.30;;;;;;4994936;28;20510;-72
2022/05/16 12:19:34;;;;;;;0.70;0.55;;;25.00;99.70;;;;;;5005476;28;20064;-71
2022/05/16 12:22:19;;;;;;;0.35;0.35;;;25.10;98.80;;;;;;5014584;28;20454;-71
2022/05/16 12:24:53;;;;;;;0.57;0.50;;;25.20;99.70;;;;;;5014751;28;20060;-71
2022/05/16 12:27:30;;;;;;;0.93;0.70;;;25.20;97.60;;;;;;4998150;28;20077;-70
2022/05/16 12:29:58;;;;;;;0.52;0.40;;;25.30;97.50;;;;;;5014940;28;20045;-70
2022/05/16 12:32:30;;;;;;;0.98;0.55;;;25.40;96.80;;;;;;4997359;28;20037;-71
2022/05/16 12:35:10;;;;;;;0.63;0.63;;;25.40;96.20;;;;;;5009799;28;20047;-72
2022/05/16 12:37:38;;;;;;;0.60;0.50;;;25.50;96.40;;;;;;4996935;28;20110;-71
2022/05/16 12:40:09;;;;;;;1.30;0.70;;;25.40;96.60;;;;;;5015222;28;20045;-71
2022/05/16 12:43:06;;;;;;;0.82;0.35;;;25.40;95.70;;;;;;5014772;28;20038;-71
2022/05/16 12:45:50;;;;;;;0.35;0.35;;;25.30;96.70;;;;;;5014708;28;20385;-71
2022/05/16 12:48:28;;;;;;;1.85;1.60;;;25.20;96.20;;;;;;5014811;28;20458;-72
2022/05/16 12:51:14;;;;;;;0.40;0.40;;;25.20;96.10;;;;;;5014518;28;20053;-72
2022/05/16 12:53:59;;;;;;;0.20;0.20;;;25.20;96.10;;;;;;4994986;28;20050;-72
2022/05/16 12:56:52;;;;;;;0.40;0.40;;;25.10;95.80;;;;;;4995407;28;20047;-72
2022/05/16 12:59:29;;;;;;;0.15;0.15;;;25.20;94.80;;;;;;4995276;28;20129;-71
2022/05/16 13:02:13;;;;;;;1.38;1.27;;;25.30;95.10;;;;;;4994975;28;20590;-72
2022/05/16 13:05:16;;;;;;;0.65;0.65;;;25.40;95.60;;;;;;4995150;28;20085;-72
2022/05/16 13:08:08;;;;;;;0.10;0.10;;;25.50;94.20;;;;;;4995287;28;20101;-72
2022/05/16 13:10:39;;;;;;;0.35;0.35;;;25.90;94.40;;;;;;4977526;28;20435;-71
2022/05/16 13:13:45;;;;;;;0.65;0.47;;;26.00;95.20;;;;;;4996330;28;20046;-72
2022/05/16 13:16:28;;;;;;;0.93;0.60;;;26.40;94.70;;;;;;4997608;28;20053;-73
2022/05/16 13:19:03;;;;;;;1.65;0.50;;;26.50;93.00;;;;;;4987200;28;20058;-72
2022/05/16 13:21:52;;;;;;;0.65;0.50;;;26.80;92.50;;;;;;4981558;28;20046;-72
2022/05/16 13:24:20;;;;;;;0.20;0.20;;;27.00;93.10;;;;;;4998509;28;20062;-72
2022/05/16 13:29:34;;;;;;;2.92;1.15;;;26.80;91.80;;;;;;4998582;28;20124;-71
2022/05/16 13:32:19;;;;;;;0.93;0.77;;;26.70;92.90;;;;;;4998483;28;20050;-71
2022/05/16 13:34:53;;;;;;;0.28;0.28;;;26.80;93.10;;;;;;4997938;28;20046;-72
2022/05/16 13:37:40;;;;;;;0.40;0.35;;;26.80;93.20;;;;;;4998403;28;20058;-71
2022/05/16 13:40:11;;;;;;;0.40;0.40;;;26.80;92.60;;;;;;4998244;28;20056;-72
2022/05/16 13:42:38;;;;;;;0.15;0.15;;;26.60;93.00;;;;;;4980651;28;20104;-71
2022/05/16 13:45:07;;;;;;;0.52;0.40;;;26.50;93.70;;;;;;4998049;28;20058;-72
2022/05/16 13:47:38;;;;;;;0.28;0.13;;;26.50;93.80;;;;;;4997784;28;20057;-71